createdAt,value
2019-03-19T00:00:34.341Z,73.90
2019-03-19T00:03:00.672Z,74.75
2019-03-19T00:05:26.730Z,74.85
2019-03-19T00:07:52.825Z,74.62
2019-03-19T00:10:18.940Z,74.39
2019-03-19T00:12:46.130Z,74.76
2019-03-19T00:15:12.415Z,74.50
2019-03-19T00:17:38.489Z,73.52
2019-03-19T00:20:08.383Z,73.40
2019-03-19T00:22:34.447Z,73.03
2019-03-19T00:25:00.545Z,73.37
2019-03-19T00:27:26.686Z,73.94
2019-03-19T00:29:52.883Z,74.55
2019-03-19T00:32:18.973Z,76.01
2019-03-19T00:34:45.215Z,76.53
2019-03-19T00:37:11.310Z,76.37
2019-03-19T00:39:37.396Z,76.43
2019-03-19T00:42:03.551Z,75.48
2019-03-19T00:44:29.785Z,77.58
2019-03-19T00:46:55.940Z,77.95
2019-03-19T00:49:22.007Z,78.21
2019-03-19T00:51:48.137Z,77.44
2019-03-19T00:54:14.243Z,77.06
2019-03-19T00:56:40.335Z,76.76
2019-03-19T00:59:06.648Z,76.12
2019-03-19T01:01:32.756Z,75.59
2019-03-19T01:03:58.820Z,75.73
2019-03-19T01:06:24.998Z,76.35
2019-03-19T01:08:51.148Z,76.60
2019-03-19T01:11:17.225Z,76.99
2019-03-19T01:13:43.337Z,76.77
2019-03-19T01:16:09.520Z,76.09
2019-03-19T01:18:35.729Z,75.51
2019-03-19T01:21:02.027Z,76.48
2019-03-19T01:23:28.414Z,76.76
2019-03-19T01:25:55.829Z,75.35
2019-03-19T01:28:22.177Z,75.74
2019-03-19T01:30:48.279Z,75.91
2019-03-19T01:33:14.372Z,76.11
2019-03-19T01:35:40.471Z,77.56
2019-03-19T01:38:06.539Z,78.00
2019-03-19T01:40:32.638Z,78.08
2019-03-19T01:42:58.701Z,77.88
2019-03-19T01:45:24.995Z,77.79
2019-03-19T01:47:51.204Z,77.07
2019-03-19T01:50:17.383Z,77.33
2019-03-19T01:52:43.606Z,77.42
2019-03-19T01:55:14.296Z,78.25
2019-03-19T01:57:42.002Z,78.99
2019-03-19T02:00:15.648Z,79.86
2019-03-19T02:02:41.789Z,79.78
2019-03-19T02:05:08.118Z,79.49
2019-03-19T02:07:34.169Z,79.37
2019-03-19T02:10:00.440Z,78.95
2019-03-19T02:12:26.643Z,78.33
2019-03-19T02:14:52.959Z,78.39
2019-03-19T02:17:19.050Z,78.60
2019-03-19T02:19:47.886Z,78.08
2019-03-19T02:22:14.099Z,78.16
2019-03-19T02:24:40.190Z,78.06
2019-03-19T02:27:06.286Z,77.78
2019-03-19T02:29:32.384Z,77.70
2019-03-19T02:31:58.489Z,78.16
2019-03-19T02:34:24.559Z,78.31
2019-03-19T02:36:50.694Z,78.99
2019-03-19T02:39:16.835Z,78.93
2019-03-19T02:41:42.930Z,77.61
2019-03-19T02:44:09.036Z,77.58
2019-03-19T02:46:35.161Z,78.01
2019-03-19T02:49:02.517Z,77.58
2019-03-19T02:51:28.615Z,76.91
2019-03-19T02:53:54.691Z,77.54
2019-03-19T02:56:32.760Z,78.62
2019-03-19T02:58:48.819Z,78.92
2019-03-19T03:01:15.022Z,78.67
2019-03-19T03:03:41.080Z,78.66
2019-03-19T03:06:07.165Z,78.83
2019-03-19T03:08:33.255Z,78.92
2019-03-19T03:10:59.805Z,78.63
2019-03-19T03:13:25.938Z,77.35
2019-03-19T03:15:51.997Z,78.13
2019-03-19T03:18:18.266Z,78.79
2019-03-19T03:20:44.486Z,78.43
2019-03-19T03:23:10.658Z,78.57
2019-03-19T03:25:36.735Z,78.48
2019-03-19T03:28:03.135Z,78.17
2019-03-19T03:30:29.339Z,77.95
2019-03-19T03:32:55.453Z,77.80
2019-03-19T03:35:21.669Z,78.57
2019-03-19T03:37:47.925Z,78.17
2019-03-19T03:40:15.222Z,78.53
2019-03-19T03:42:43.110Z,79.66
2019-03-19T03:45:11.155Z,79.58
2019-03-19T03:47:37.458Z,78.57
2019-03-19T03:50:15.359Z,78.58
2019-03-19T03:52:41.448Z,78.69
2019-03-19T03:55:11.371Z,79.22
2019-03-19T03:57:37.660Z,79.27
2019-03-19T04:00:13.201Z,80.51
2019-03-19T04:02:39.259Z,81.51
2019-03-19T04:05:06.460Z,81.79
2019-03-19T04:07:32.651Z,81.64
2019-03-19T04:09:58.824Z,81.52
2019-03-19T04:12:24.925Z,81.29
2019-03-19T04:14:51.102Z,80.75
2019-03-19T04:17:17.294Z,80.49
2019-03-19T04:19:43.390Z,80.23
2019-03-19T04:22:09.545Z,79.56
2019-03-19T04:24:35.839Z,79.53
2019-03-19T04:27:14.886Z,79.13
2019-03-19T04:29:30.217Z,79.43
2019-03-19T04:31:56.315Z,79.44
2019-03-19T04:34:22.373Z,79.70
2019-03-19T04:36:48.474Z,79.79
2019-03-19T04:39:14.631Z,79.38
2019-03-19T04:41:40.729Z,79.75
2019-03-19T04:44:06.864Z,79.68
2019-03-19T04:46:32.920Z,79.63
2019-03-19T04:48:58.985Z,79.18
2019-03-19T04:51:25.083Z,78.61
2019-03-19T04:53:51.187Z,79.14
2019-03-19T04:56:17.281Z,79.37
2019-03-19T04:58:43.365Z,79.57
2019-03-19T05:01:09.448Z,80.10
2019-03-19T05:03:35.531Z,80.27
2019-03-19T05:06:01.775Z,79.93
2019-03-19T05:08:27.880Z,79.58
2019-03-19T05:10:54.060Z,79.53
2019-03-19T05:13:20.189Z,78.89
2019-03-19T05:15:46.281Z,79.01
2019-03-19T05:18:12.369Z,79.15
2019-03-19T05:20:38.566Z,79.51
2019-03-19T05:23:04.767Z,80.18
2019-03-19T05:25:30.954Z,80.57
2019-03-19T05:27:57.069Z,81.12
2019-03-19T05:30:23.239Z,80.66
2019-03-19T05:32:49.463Z,80.27
2019-03-19T05:35:15.619Z,80.28
2019-03-19T05:37:42.838Z,80.23
2019-03-19T05:40:10.751Z,80.07
2019-03-19T05:42:37.039Z,79.95
2019-03-19T05:45:07.551Z,79.62
2019-03-19T05:47:38.266Z,79.57
2019-03-19T05:50:01.846Z,79.73
2019-03-19T05:52:28.046Z,79.65
2019-03-19T05:54:54.150Z,79.54
2019-03-19T05:57:20.263Z,79.98
2019-03-19T05:59:46.332Z,79.96
2019-03-19T06:02:12.557Z,80.26
2019-03-19T06:04:39.004Z,80.31
2019-03-19T06:07:05.276Z,80.37
2019-03-19T06:09:31.528Z,80.34
2019-03-19T06:11:57.627Z,79.92
2019-03-19T06:14:23.747Z,79.37
2019-03-19T06:16:49.820Z,79.91
2019-03-19T06:19:15.959Z,79.16
2019-03-19T06:21:42.086Z,79.74
2019-03-19T06:24:08.290Z,79.10
2019-03-19T06:26:34.505Z,78.88
2019-03-19T06:29:00.601Z,78.66
2019-03-19T06:31:26.694Z,78.21
2019-03-19T06:33:52.800Z,77.74
2019-03-19T06:36:18.918Z,77.25
2019-03-19T06:38:45.021Z,77.34
2019-03-19T06:41:11.138Z,76.75
2019-03-19T06:43:37.279Z,76.96
2019-03-19T06:46:03.544Z,78.67
2019-03-19T06:48:29.712Z,79.32
2019-03-19T06:50:55.832Z,79.32
2019-03-19T06:53:22.109Z,78.70
2019-03-19T06:55:48.355Z,76.59
2019-03-19T06:58:14.435Z,76.86
2019-03-19T07:00:40.643Z,76.24
2019-03-19T07:03:06.847Z,75.74
2019-03-19T07:05:32.950Z,76.20
2019-03-19T07:07:59.041Z,75.01
2019-03-19T07:10:25.175Z,74.48
2019-03-19T07:12:51.268Z,74.69
2019-03-19T07:15:19.681Z,73.49
2019-03-19T07:17:46.001Z,72.80
2019-03-19T07:20:23.061Z,73.37
2019-03-19T07:22:49.253Z,73.42
2019-03-19T07:25:15.756Z,74.19
2019-03-19T07:27:42.118Z,72.58
2019-03-19T07:30:11.731Z,74.65
2019-03-19T07:32:37.839Z,74.87
2019-03-19T07:35:04.275Z,74.81
2019-03-19T07:37:30.355Z,73.55
2019-03-19T07:39:56.536Z,71.35
2019-03-19T07:42:22.649Z,71.23
2019-03-19T07:44:48.714Z,71.70
2019-03-19T07:47:14.852Z,71.06
2019-03-19T07:49:40.971Z,67.17
2019-03-19T07:52:07.172Z,65.22
2019-03-19T07:54:33.240Z,68.93
2019-03-19T07:56:59.338Z,68.92
2019-03-19T07:59:25.490Z,67.72
2019-03-19T08:01:51.576Z,68.98
2019-03-19T08:04:17.683Z,69.85
2019-03-19T08:06:43.910Z,69.55
2019-03-19T08:09:10.102Z,68.24
2019-03-19T08:11:36.183Z,67.63
2019-03-19T08:14:02.523Z,66.62
2019-03-19T08:16:28.607Z,65.12
2019-03-19T08:18:54.922Z,63.82
2019-03-19T08:21:22.566Z,63.03
2019-03-19T08:23:49.077Z,64.29
2019-03-19T08:26:15.169Z,65.88
2019-03-19T08:28:41.348Z,68.09
2019-03-19T08:31:07.464Z,67.53
2019-03-19T08:33:33.528Z,67.22
2019-03-19T08:36:09.031Z,66.82
2019-03-19T08:38:28.059Z,64.13
2019-03-19T08:40:54.268Z,63.72
2019-03-19T08:43:20.617Z,62.20
2019-03-19T08:45:46.789Z,60.94
2019-03-19T08:48:12.936Z,61.34
2019-03-19T08:50:39.016Z,59.85
2019-03-19T08:53:05.421Z,58.63
2019-03-19T08:55:31.507Z,60.04
2019-03-19T08:57:57.614Z,60.51
2019-03-19T09:00:25.678Z,59.46
2019-03-19T09:02:51.973Z,59.05
2019-03-19T09:05:18.233Z,56.54
2019-03-19T09:07:44.450Z,57.46
2019-03-19T09:10:12.221Z,58.09
2019-03-19T09:12:38.461Z,59.52
2019-03-19T09:15:10.383Z,65.46
2019-03-19T09:17:36.808Z,63.94
2019-03-19T09:20:13.535Z,65.02
2019-03-19T09:22:40.883Z,62.47
2019-03-19T09:25:08.738Z,60.98
2019-03-19T09:27:34.951Z,59.80
2019-03-19T09:30:01.131Z,60.96
2019-03-19T09:32:27.320Z,64.96
2019-03-19T09:34:53.437Z,65.71
2019-03-19T09:37:19.614Z,66.33
2019-03-19T09:39:45.740Z,65.70
2019-03-19T09:42:11.931Z,65.38
2019-03-19T09:44:38.079Z,66.08
2019-03-19T09:47:04.248Z,65.56
2019-03-19T09:49:30.370Z,67.02
2019-03-19T09:51:56.553Z,65.87
2019-03-19T09:54:22.671Z,66.41
2019-03-19T09:56:48.900Z,65.51
2019-03-19T09:59:15.104Z,61.68
2019-03-19T10:01:41.310Z,62.27
2019-03-19T10:04:07.490Z,63.40
2019-03-19T10:06:33.710Z,64.26
2019-03-19T10:08:59.787Z,60.51
2019-03-19T10:11:26.004Z,61.54
2019-03-19T10:13:52.279Z,62.09
2019-03-19T10:16:18.379Z,62.48
2019-03-19T10:18:44.464Z,61.56
2019-03-19T10:21:10.669Z,62.87
2019-03-19T10:23:36.769Z,62.17
2019-03-19T10:26:03.057Z,60.34
2019-03-19T10:28:29.200Z,60.41
2019-03-19T10:30:55.309Z,59.85
2019-03-19T10:33:21.416Z,59.71
2019-03-19T10:35:47.699Z,59.29
2019-03-19T10:38:14.000Z,57.86
2019-03-19T10:40:40.210Z,56.38
2019-03-19T10:43:06.823Z,57.98
2019-03-19T10:45:33.027Z,58.61
2019-03-19T10:47:59.219Z,59.30
2019-03-19T10:50:26.339Z,58.71
2019-03-19T10:52:53.735Z,59.52
2019-03-19T10:55:20.168Z,57.21
2019-03-19T10:57:46.585Z,56.64
2019-03-19T11:00:15.668Z,58.95
2019-03-19T11:02:41.903Z,57.47
2019-03-19T11:05:10.671Z,56.81
2019-03-19T11:07:36.794Z,57.48
2019-03-19T11:10:07.063Z,58.05
2019-03-19T11:12:33.161Z,56.12
2019-03-19T11:14:59.374Z,56.92
2019-03-19T11:17:25.605Z,58.92
2019-03-19T11:19:51.685Z,57.64
2019-03-19T11:22:17.933Z,58.80
2019-03-19T11:24:44.030Z,58.80
2019-03-19T11:27:10.202Z,58.47
2019-03-19T11:29:36.320Z,56.59
2019-03-19T11:32:02.519Z,54.92
2019-03-19T11:34:28.647Z,57.13
2019-03-19T11:36:57.981Z,56.96
2019-03-19T11:39:22.860Z,54.50
2019-03-19T11:41:48.932Z,53.09
2019-03-19T11:44:15.050Z,49.35
2019-03-19T11:46:41.206Z,50.06
2019-03-19T11:49:07.546Z,46.82
2019-03-19T11:51:33.728Z,50.42
2019-03-19T11:53:59.993Z,50.99
2019-03-19T11:56:26.264Z,51.82
2019-03-19T11:58:52.438Z,53.73
2019-03-19T12:01:18.575Z,52.82
2019-03-19T12:03:44.776Z,50.20
2019-03-19T12:06:10.903Z,50.91
2019-03-19T12:08:36.979Z,52.19
2019-03-19T12:11:03.397Z,48.87
2019-03-19T12:13:29.713Z,51.21
2019-03-19T12:15:55.970Z,47.46
2019-03-19T12:18:22.232Z,50.18
2019-03-19T12:20:48.525Z,49.32
2019-03-19T12:23:14.752Z,49.60
2019-03-19T12:25:40.945Z,49.61
2019-03-19T12:28:07.275Z,49.82
2019-03-19T12:30:33.580Z,50.58
2019-03-19T12:32:59.912Z,52.31
2019-03-19T12:35:26.068Z,51.05
2019-03-19T12:37:52.319Z,48.80
2019-03-19T12:40:22.406Z,47.46
2019-03-19T12:42:48.624Z,50.61
2019-03-19T12:45:16.019Z,49.96
2019-03-19T12:47:42.323Z,50.45
2019-03-19T12:50:15.166Z,48.24
2019-03-19T12:52:41.381Z,48.84
2019-03-19T12:55:08.183Z,46.95
2019-03-19T12:57:34.488Z,44.68
2019-03-19T13:00:00.664Z,47.00
2019-03-19T13:02:27.022Z,47.92
2019-03-19T13:04:53.142Z,49.81
2019-03-19T13:07:19.274Z,48.40
2019-03-19T13:09:45.392Z,49.02
2019-03-19T13:12:11.596Z,49.91
2019-03-19T13:14:37.930Z,49.00
2019-03-19T13:17:04.148Z,48.31
2019-03-19T13:19:30.263Z,47.22
2019-03-19T13:21:56.494Z,48.12
2019-03-19T13:24:22.630Z,49.22
2019-03-19T13:26:48.922Z,49.09
2019-03-19T13:29:15.123Z,49.31
2019-03-19T13:31:41.226Z,47.75
2019-03-19T13:34:07.357Z,47.28
2019-03-19T13:36:33.567Z,47.25
2019-03-19T13:38:59.873Z,47.62
2019-03-19T13:41:26.101Z,45.66
2019-03-19T13:43:52.219Z,46.14
2019-03-19T13:46:18.320Z,44.66
2019-03-19T13:48:44.469Z,45.00
2019-03-19T13:51:10.640Z,42.97
2019-03-19T13:53:36.852Z,45.02
2019-03-19T13:56:03.042Z,44.85
2019-03-19T13:58:29.229Z,45.04
2019-03-19T14:00:56.003Z,43.72
2019-03-19T14:03:22.223Z,47.37
2019-03-19T14:05:48.476Z,46.05
2019-03-19T14:08:14.644Z,44.54
2019-03-19T14:10:40.884Z,47.01
2019-03-19T14:13:07.174Z,46.46
2019-03-19T14:15:33.305Z,48.23
2019-03-19T14:17:59.371Z,44.62
2019-03-19T14:20:25.593Z,45.57
2019-03-19T14:22:51.895Z,43.42
2019-03-19T14:25:18.287Z,43.22
2019-03-19T14:27:44.631Z,44.86
2019-03-19T14:30:18.732Z,44.96
2019-03-19T14:32:45.058Z,45.54
2019-03-19T14:35:11.230Z,43.76
2019-03-19T14:37:37.665Z,44.08
2019-03-19T14:40:10.254Z,43.68
2019-03-19T14:42:36.493Z,42.71
2019-03-19T14:45:05.417Z,41.75
2019-03-19T14:47:31.668Z,44.11
2019-03-19T14:49:57.947Z,44.14
2019-03-19T14:52:24.169Z,44.76
2019-03-19T14:54:50.272Z,43.43
2019-03-19T14:57:16.582Z,45.54
2019-03-19T14:59:42.703Z,43.61
2019-03-19T15:02:08.880Z,42.09
2019-03-19T15:04:34.999Z,41.90
2019-03-19T15:07:01.221Z,42.50
2019-03-19T15:09:27.368Z,43.52
2019-03-19T15:11:53.518Z,42.27
2019-03-19T15:14:19.725Z,44.49
2019-03-19T15:16:45.971Z,45.46
2019-03-19T15:19:12.252Z,44.67
2019-03-19T15:21:38.592Z,42.98
2019-03-19T15:24:04.657Z,44.08
2019-03-19T15:26:31.896Z,47.47
2019-03-19T15:28:58.081Z,44.27
2019-03-19T15:31:29.825Z,45.73
2019-03-19T15:33:52.400Z,45.04
2019-03-19T15:36:18.532Z,44.68
2019-03-19T15:38:44.594Z,44.48
2019-03-19T15:41:10.829Z,44.83
2019-03-19T15:43:37.965Z,46.37
2019-03-19T15:46:04.241Z,44.67
2019-03-19T15:48:30.470Z,45.43
2019-03-19T15:50:56.571Z,44.43
2019-03-19T15:53:22.678Z,43.64
2019-03-19T15:55:48.769Z,43.54
2019-03-19T15:58:15.036Z,43.77
2019-03-19T16:00:41.244Z,46.44
2019-03-19T16:03:07.437Z,46.00
2019-03-19T16:05:33.654Z,44.46
2019-03-19T16:07:59.915Z,45.28
2019-03-19T16:10:27.134Z,44.40
2019-03-19T16:12:53.484Z,45.88
2019-03-19T16:15:20.817Z,44.31
2019-03-19T16:17:48.242Z,45.72
2019-03-19T16:20:15.650Z,45.33
2019-03-19T16:22:41.860Z,45.47
2019-03-19T16:25:08.189Z,43.62
2019-03-19T16:27:34.388Z,43.51
2019-03-19T16:30:00.598Z,43.93
2019-03-19T16:32:26.702Z,45.40
2019-03-19T16:34:52.845Z,44.30
2019-03-19T16:37:18.933Z,44.52
2019-03-19T16:39:45.077Z,43.33
2019-03-19T16:42:11.293Z,46.12
2019-03-19T16:44:38.524Z,45.52
2019-03-19T16:47:04.843Z,45.11
2019-03-19T16:49:30.938Z,43.93
2019-03-19T16:51:57.157Z,43.40
2019-03-19T16:54:23.285Z,44.72
2019-03-19T16:56:49.486Z,43.32
2019-03-19T16:59:15.735Z,45.49
2019-03-19T17:01:42.149Z,46.45
2019-03-19T17:04:08.436Z,46.27
2019-03-19T17:06:34.570Z,46.43
2019-03-19T17:09:00.899Z,44.93
2019-03-19T17:11:27.075Z,47.34
2019-03-19T17:13:53.277Z,48.25
2019-03-19T17:16:19.513Z,48.50
2019-03-19T17:18:45.649Z,48.57
2019-03-19T17:21:11.853Z,47.53
2019-03-19T17:23:37.989Z,48.02
2019-03-19T17:26:04.339Z,48.77
2019-03-19T17:28:30.652Z,48.93
2019-03-19T17:30:57.308Z,48.96
2019-03-19T17:33:23.554Z,49.05
2019-03-19T17:35:49.867Z,49.92
2019-03-19T17:38:16.092Z,49.25
2019-03-19T17:40:42.331Z,51.17
2019-03-19T17:43:08.660Z,50.67
2019-03-19T17:45:34.771Z,53.09
2019-03-19T17:48:01.183Z,52.90
2019-03-19T17:50:29.324Z,51.96
2019-03-19T17:52:55.738Z,50.61
2019-03-19T17:55:22.086Z,50.38
2019-03-19T17:57:48.311Z,51.50
2019-03-19T18:00:17.858Z,51.56
2019-03-19T18:02:44.296Z,52.83
2019-03-19T18:07:53.199Z,53.38
2019-03-19T18:10:19.508Z,53.16
2019-03-19T18:12:45.786Z,52.64
2019-03-19T18:15:15.713Z,54.42
2019-03-19T18:17:41.927Z,55.38
2019-03-19T18:20:10.570Z,57.17
2019-03-19T18:22:36.922Z,56.37
2019-03-19T18:25:04.364Z,56.82
2019-03-19T18:27:30.517Z,57.00
2019-03-19T18:29:56.800Z,57.47
2019-03-19T18:32:22.944Z,57.32
2019-03-19T18:34:49.157Z,58.67
2019-03-19T18:37:15.475Z,59.20
2019-03-19T18:39:41.633Z,59.98
2019-03-19T18:42:07.820Z,61.35
2019-03-19T18:44:34.006Z,60.35
2019-03-19T18:47:00.182Z,60.00
2019-03-19T18:49:26.396Z,59.19
2019-03-19T18:51:52.625Z,59.43
2019-03-19T18:54:18.958Z,59.35
2019-03-19T18:56:45.222Z,59.51
2019-03-19T18:59:11.440Z,58.96
2019-03-19T19:01:37.658Z,59.85
2019-03-19T19:04:03.968Z,59.93
2019-03-19T19:06:30.225Z,60.75
2019-03-19T19:08:56.581Z,59.79
2019-03-19T19:11:23.046Z,60.78
2019-03-19T19:13:49.377Z,60.12
2019-03-19T19:16:15.899Z,60.28
2019-03-19T19:18:42.244Z,60.86
2019-03-19T19:21:08.341Z,61.33
2019-03-19T19:23:34.573Z,62.21
2019-03-19T19:26:00.888Z,62.07
2019-03-19T19:28:27.102Z,63.34
2019-03-19T19:30:53.457Z,63.41
2019-03-19T19:33:19.688Z,63.46
2019-03-19T19:35:45.884Z,62.89
2019-03-19T19:38:12.120Z,62.23
2019-03-19T19:40:38.325Z,63.60
2019-03-19T19:43:04.648Z,63.49
2019-03-19T19:45:30.995Z,65.50
2019-03-19T19:47:57.083Z,64.88
2019-03-19T19:50:23.322Z,65.53
2019-03-19T19:52:49.740Z,65.38
2019-03-19T19:55:17.207Z,65.57
2019-03-19T19:57:43.467Z,65.59
2019-03-19T20:00:15.172Z,66.32
2019-03-19T20:02:41.416Z,66.31
2019-03-19T20:05:07.966Z,65.72
2019-03-19T20:07:34.132Z,65.48
2019-03-19T20:10:00.464Z,66.42
2019-03-19T20:12:26.838Z,67.77
2019-03-19T20:14:53.359Z,67.05
2019-03-19T20:17:19.845Z,67.86
2019-03-19T20:19:46.076Z,68.87
2019-03-19T20:22:12.331Z,67.60
2019-03-19T20:24:38.606Z,68.15
2019-03-19T20:27:04.877Z,67.60
2019-03-19T20:29:31.164Z,67.56
2019-03-19T20:31:57.282Z,68.09
2019-03-19T20:34:23.572Z,67.18
2019-03-19T20:36:49.960Z,68.16
2019-03-19T20:39:16.447Z,68.00
2019-03-19T20:41:42.680Z,68.96
2019-03-19T20:44:10.053Z,67.65
2019-03-19T20:46:36.285Z,68.16
2019-03-19T20:49:02.745Z,68.13
2019-03-19T20:51:29.195Z,69.20
2019-03-19T20:53:55.422Z,68.91
2019-03-19T20:56:21.559Z,68.67
2019-03-19T20:58:47.758Z,69.06
2019-03-19T21:01:14.189Z,70.17
2019-03-19T21:03:40.403Z,69.61
2019-03-19T21:06:06.695Z,70.07
2019-03-19T21:08:32.925Z,69.44
2019-03-19T21:10:59.105Z,70.16
2019-03-19T21:13:25.238Z,69.58
2019-03-19T21:15:51.562Z,70.02
2019-03-19T21:18:17.856Z,69.20
2019-03-19T21:20:44.099Z,70.28
2019-03-19T21:23:10.350Z,70.02
2019-03-19T21:25:36.525Z,69.57
2019-03-19T21:28:13.205Z,69.41
2019-03-19T21:30:31.162Z,70.03
2019-03-19T21:32:57.488Z,69.96
2019-03-19T21:35:24.180Z,70.05
2019-03-19T21:37:50.415Z,70.29
2019-03-19T21:40:16.928Z,70.64
2019-03-19T21:42:43.268Z,70.29
2019-03-19T21:45:13.193Z,70.64
2019-03-19T21:47:39.275Z,71.26
2019-03-19T21:50:15.156Z,70.76
2019-03-19T21:52:41.341Z,70.17
2019-03-19T21:55:08.871Z,70.09
2019-03-19T21:57:35.013Z,70.52
2019-03-19T22:00:08.384Z,70.81
2019-03-19T22:02:35.295Z,70.41
2019-03-19T22:05:01.590Z,70.60
2019-03-19T22:07:27.909Z,71.45
2019-03-19T22:09:54.234Z,71.34
2019-03-19T22:12:21.618Z,71.34
2019-03-19T22:14:47.827Z,71.23
2019-03-19T22:17:13.972Z,71.60
2019-03-19T22:19:40.278Z,71.26
2019-03-19T22:22:06.499Z,71.46
2019-03-19T22:24:32.641Z,71.36
2019-03-19T22:26:58.706Z,71.48
2019-03-19T22:29:24.807Z,71.33
2019-03-19T22:31:51.133Z,71.70
2019-03-19T22:34:17.440Z,71.50
2019-03-19T22:36:43.515Z,71.66
2019-03-19T22:39:09.732Z,70.91
2019-03-19T22:41:36.127Z,70.99
2019-03-19T22:44:02.505Z,70.96
2019-03-19T22:46:28.595Z,71.94
2019-03-19T22:48:54.815Z,71.93
2019-03-19T22:51:21.015Z,71.94
2019-03-19T22:53:47.082Z,71.67
2019-03-19T22:56:14.316Z,71.49
2019-03-19T22:58:40.391Z,71.83
2019-03-19T23:01:06.740Z,71.83
2019-03-19T23:03:34.926Z,71.61
2019-03-19T23:06:01.095Z,71.55
2019-03-19T23:08:27.338Z,71.08
2019-03-19T23:10:53.749Z,71.70
2019-03-19T23:13:20.038Z,72.19
2019-03-19T23:15:46.356Z,72.12
2019-03-19T23:18:12.525Z,72.42
2019-03-19T23:20:38.823Z,72.05
2019-03-19T23:23:05.089Z,72.06
2019-03-19T23:25:32.348Z,71.97
2019-03-19T23:27:58.725Z,71.38
2019-03-19T23:30:24.807Z,71.75
2019-03-19T23:32:51.100Z,72.01
2019-03-19T23:35:17.369Z,71.20
2019-03-19T23:37:43.636Z,71.36
2019-03-19T23:40:11.419Z,71.51
2019-03-19T23:42:37.613Z,71.85
2019-03-19T23:45:06.719Z,71.85
2019-03-19T23:47:32.891Z,71.69
2019-03-19T23:49:59.018Z,71.91
2019-03-19T23:52:25.120Z,71.97
2019-03-19T23:54:51.241Z,72.30
2019-03-19T23:57:17.436Z,72.74
2019-03-19T23:59:43.551Z,72.75
